Time;durP1;ratioP1;P1;durP2;ratioP2;P2;SDS_P1;SDS_P2;PMS_P1;PMS_P2;Temp;Humidity;BMP_temperature;BMP_pressure;BME280_temperature;BME280_humidity;BME280_pressure;Samples;Min_cycle;Max_cycle;Signal;HPM_P1;HPM_P2
2024/01/12 00:00:21;;;;;;;31.80;16.60;;;;;;;2.10;100.00;103315.09;4781474;29;20034;-76
2024/01/12 00:02:47;;;;;;;36.10;16.90;;;;;;;2.10;100.00;103326.16;4790163;29;20034;-75
2024/01/12 00:05:12;;;;;;;34.13;16.00;;;;;;;2.12;100.00;103318.44;4785293;29;20054;-78
2024/01/12 00:07:38;;;;;;;31.17;16.23;;;;;;;2.13;100.00;103325.66;4782562;29;20038;-76
2024/01/12 00:10:04;;;;;;;30.65;15.60;;;;;;;2.12;100.00;103323.13;4782721;29;20039;-77
2024/01/12 00:12:29;;;;;;;33.22;16.55;;;;;;;2.11;100.00;103322.31;4781061;29;20134;-78
2024/01/12 00:14:55;;;;;;;30.90;16.30;;;;;;;2.05;100.00;103330.81;4781117;29;20118;-76
2024/01/12 00:17:20;;;;;;;37.63;17.42;;;;;;;2.10;100.00;103325.31;4785502;29;20038;-77
2024/01/12 00:19:46;;;;;;;32.10;16.13;;;;;;;2.11;100.00;103322.31;4781396;29;20146;-77
2024/01/12 00:22:11;;;;;;;35.15;15.57;;;;;;;2.13;100.00;103330.31;4786446;29;20439;-77
2024/01/12 00:24:37;;;;;;;33.97;15.93;;;;;;;2.17;100.00;103326.78;4780265;29;20119;-78
2024/01/12 00:27:02;;;;;;;30.70;14.80;;;;;;;2.16;100.00;103330.63;4785892;29;20189;-77
2024/01/12 00:29:27;;;;;;;35.10;15.75;;;;;;;2.19;100.00;103327.38;4782249;29;20043;-76
2024/01/12 00:31:53;;;;;;;30.80;16.33;;;;;;;2.09;100.00;103335.53;4783507;29;20535;-76
2024/01/12 00:34:19;;;;;;;31.30;15.25;;;;;;;2.15;100.00;103345.56;4785464;29;20172;-77
2024/01/12 00:36:46;;;;;;;32.75;16.63;;;;;;;2.18;100.00;103338.66;4788157;29;20506;-74
2024/01/12 00:39:11;;;;;;;29.98;14.77;;;;;;;2.15;100.00;103342.78;4779066;29;20038;-74
2024/01/12 00:41:37;;;;;;;33.72;17.63;;;;;;;2.19;100.00;103348.63;4785155;30;20390;-73
2024/01/12 00:44:04;;;;;;;35.70;15.68;;;;;;;2.18;100.00;103350.56;4778584;29;20239;-73
2024/01/12 00:46:29;;;;;;;34.30;14.80;;;;;;;2.16;100.00;103341.69;4782766;29;20049;-74
2024/01/12 00:48:54;;;;;;;28.50;14.63;;;;;;;2.16;100.00;103343.63;4786914;29;20039;-74
2024/01/12 00:51:21;;;;;;;36.25;16.00;;;;;;;2.12;100.00;103335.00;4784328;29;20039;-75
2024/01/12 00:53:46;;;;;;;29.48;14.57;;;;;;;2.16;100.00;103338.09;4783018;29;20124;-75
2024/01/12 00:56:11;;;;;;;30.65;16.13;;;;;;;2.14;100.00;103327.28;4783777;29;20031;-75
2024/01/12 00:58:37;;;;;;;24.48;13.63;;;;;;;2.11;100.00;103327.84;4778783;29;20040;-75
2024/01/12 01:01:03;;;;;;;28.48;14.25;;;;;;;2.16;100.00;103325.09;4780906;29;20149;-75
2024/01/12 01:03:29;;;;;;;27.33;13.25;;;;;;;2.19;100.00;103332.91;4781421;29;20462;-74
2024/01/12 01:05:55;;;;;;;29.60;14.65;;;;;;;2.18;100.00;103322.91;4777808;29;20043;-74
2024/01/12 01:08:20;;;;;;;37.20;14.48;;;;;;;2.21;100.00;103329.84;4783586;29;20388;-76
2024/01/12 01:10:46;;;;;;;34.45;15.60;;;;;;;2.22;100.00;103318.53;4783878;29;20039;-76
2024/01/12 01:13:13;;;;;;;26.35;14.27;;;;;;;2.20;100.00;103330.97;4774482;29;20566;-76
2024/01/12 01:15:38;;;;;;;28.52;15.18;;;;;;;2.19;100.00;103332.03;4778223;29;20047;-75
2024/01/12 01:18:04;;;;;;;27.10;13.73;;;;;;;2.20;100.00;103331.78;4778863;29;20553;-75
2024/01/12 01:20:29;;;;;;;25.35;14.43;;;;;;;2.21;100.00;103324.31;4783269;29;20035;-75
2024/01/12 01:22:54;;;;;;;29.10;12.90;;;;;;;2.26;100.00;103340.09;4782103;29;20043;-75
2024/01/12 01:25:20;;;;;;;30.35;14.20;;;;;;;2.21;100.00;103329.84;4778197;29;20043;-75
2024/01/12 01:27:45;;;;;;;30.35;12.88;;;;;;;2.20;100.00;103337.31;4780730;29;20046;-76
2024/01/12 01:30:13;;;;;;;24.08;13.02;;;;;;;2.22;100.00;103328.78;4781192;29;20031;-75
2024/01/12 01:32:39;;;;;;;25.33;12.38;;;;;;;2.23;100.00;103325.75;4781712;29;20027;-75
2024/01/12 01:35:04;;;;;;;27.83;13.38;;;;;;;2.27;100.00;103322.44;4781902;29;20209;-75
2024/01/12 01:37:30;;;;;;;21.92;11.50;;;;;;;2.21;100.00;103311.34;4781913;29;20516;-74
2024/01/12 01:39:55;;;;;;;30.48;14.85;;;;;;;2.21;100.00;103319.66;4777421;29;20550;-75
2024/01/12 01:42:21;;;;;;;26.38;13.02;;;;;;;2.24;100.00;103315.53;4782071;29;20449;-75
2024/01/12 01:44:46;;;;;;;22.60;12.07;;;;;;;2.22;100.00;103318.53;4781275;29;20517;-75
2024/01/12 01:47:14;;;;;;;24.55;11.90;;;;;;;2.21;100.00;103316.03;4773820;29;20100;-75
2024/01/12 01:49:39;;;;;;;30.30;12.35;;;;;;;2.23;100.00;103314.69;4778238;29;20059;-75
2024/01/12 01:52:05;;;;;;;20.08;12.10;;;;;;;2.21;100.00;103316.03;4779593;29;20066;-74
2024/01/12 01:54:33;;;;;;;24.17;12.32;;;;;;;2.24;100.00;103315.53;4781713;29;20620;-75
2024/01/12 01:56:58;;;;;;;23.65;9.85;;;;;;;2.20;100.00;103317.13;4779302;29;23189;-76
2024/01/12 01:59:23;;;;;;;21.40;11.13;;;;;;;2.20;100.00;103320.72;4783429;29;20055;-76
2024/01/12 02:01:49;;;;;;;17.40;9.98;;;;;;;2.27;100.00;103314.16;4781287;29;20081;-76
2024/01/12 02:04:15;;;;;;;28.98;10.60;;;;;;;2.27;100.00;103317.75;4776018;29;20040;-76
2024/01/12 02:06:40;;;;;;;19.52;10.25;;;;;;;2.21;100.00;103319.66;4783843;29;20425;-76
2024/01/12 02:09:07;;;;;;;22.67;11.32;;;;;;;2.21;100.00;103305.84;4783298;29;20031;-76
2024/01/12 02:11:33;;;;;;;21.88;10.52;;;;;;;2.23;100.00;103300.88;4782947;29;20456;-76
2024/01/12 02:13:58;;;;;;;23.55;10.60;;;;;;;2.27;100.00;103303.94;4783664;29;20097;-75
2024/01/12 02:16:24;;;;;;;20.60;9.07;;;;;;;2.27;100.00;103308.63;4782864;29;20031;-76
2024/01/12 02:18:49;;;;;;;16.30;8.48;;;;;;;2.28;100.00;103310.28;4783288;29;20054;-76
2024/01/12 02:21:14;;;;;;;15.07;8.90;;;;;;;2.26;100.00;103318.00;4780962;29;20035;-75
2024/01/12 02:23:40;;;;;;;15.98;8.45;;;;;;;2.27;100.00;103314.16;4778722;29;20034;-76
2024/01/12 02:26:05;;;;;;;19.98;7.90;;;;;;;2.26;100.00;103313.34;4774187;29;20047;-76
2024/01/12 02:28:31;;;;;;;19.15;6.57;;;;;;;2.26;100.00;103306.94;4779712;29;20035;-76
2024/01/12 02:30:56;;;;;;;17.98;6.20;;;;;;;2.29;100.00;103314.72;4775809;29;20479;-75
2024/01/12 02:33:22;;;;;;;14.32;6.13;;;;;;;2.32;100.00;103308.66;4784016;30;20035;-76
2024/01/12 02:35:47;;;;;;;17.52;6.90;;;;;;;2.33;100.00;103313.13;4794218;29;20031;-76
2024/01/12 02:38:12;;;;;;;10.57;5.95;;;;;;;2.31;100.00;103315.31;4776884;29;20039;-76
2024/01/12 02:40:38;;;;;;;17.08;5.72;;;;;;;2.29;100.00;103314.72;4781983;29;20494;-75
2024/01/12 02:43:03;;;;;;;11.40;5.00;;;;;;;2.29;100.00;103306.44;4778875;29;20070;-77
2024/01/12 02:45:29;;;;;;;11.88;4.97;;;;;;;2.39;100.00;103303.78;4782774;29;20063;-75
2024/01/12 02:47:54;;;;;;;8.30;4.00;;;;;;;2.36;100.00;103293.22;4781275;29;20150;-76
2024/01/12 02:50:19;;;;;;;11.70;4.15;;;;;;;2.36;100.00;103296.84;4781494;29;20082;-75
2024/01/12 02:52:45;;;;;;;12.15;4.55;;;;;;;2.36;100.00;103296.00;4782173;29;20122;-76
2024/01/12 02:55:10;;;;;;;12.18;4.10;;;;;;;2.34;100.00;103303.72;4782243;29;20615;-76
2024/01/12 02:57:36;;;;;;;13.45;4.43;;;;;;;2.30;100.00;103305.31;4781494;29;20490;-76
2024/01/12 03:00:01;;;;;;;14.43;4.43;;;;;;;2.29;100.00;103292.63;4778186;29;20027;-76
2024/01/12 03:02:26;;;;;;;7.57;3.47;;;;;;;2.27;100.00;103281.81;4783486;30;20046;-75
2024/01/12 03:04:52;;;;;;;10.93;3.88;;;;;;;2.31;100.00;103282.13;4783758;29;20039;-75
2024/01/12 03:07:17;;;;;;;12.80;3.80;;;;;;;2.34;100.00;103298.19;4783341;29;20046;-76
2024/01/12 03:09:43;;;;;;;7.82;3.78;;;;;;;2.38;100.00;103297.41;4774359;29;20475;-76
2024/01/12 03:12:08;;;;;;;12.23;3.90;;;;;;;2.39;100.00;103292.72;4777501;29;20114;-76
2024/01/12 03:14:33;;;;;;;10.98;3.50;;;;;;;2.41;100.00;103293.28;4778403;29;20368;-76
2024/01/12 03:16:59;;;;;;;7.40;3.30;;;;;;;2.43;100.00;103294.69;4778187;29;20039;-76
2024/01/12 03:19:24;;;;;;;11.15;3.15;;;;;;;2.40;100.00;103291.59;4780183;30;20106;-76
2024/01/12 03:21:50;;;;;;;5.38;3.08;;;;;;;2.32;100.00;103292.09;4776176;29;20058;-76
2024/01/12 03:24:15;;;;;;;6.32;3.28;;;;;;;2.38;100.00;103288.28;4778506;30;20505;-76
2024/01/12 03:26:41;;;;;;;13.23;3.13;;;;;;;2.42;100.00;103284.75;4776730;29;20066;-76
2024/01/12 03:29:06;;;;;;;14.57;3.70;;;;;;;2.42;100.00;103283.88;4779474;29;20514;-76
2024/01/12 03:31:32;;;;;;;9.32;3.28;;;;;;;2.48;100.00;103293.06;4775074;29;20070;-76
2024/01/12 03:33:57;;;;;;;10.02;3.28;;;;;;;2.46;100.00;103296.09;4773148;29;20031;-76
2024/01/12 03:36:23;;;;;;;6.93;3.00;;;;;;;2.51;100.00;103293.38;4779921;29;20034;-76
2024/01/12 03:38:49;;;;;;;12.95;3.33;;;;;;;2.54;100.00;103284.53;4776955;29;21348;-76
2024/01/12 03:41:14;;;;;;;8.35;3.55;;;;;;;2.53;100.00;103282.91;4781908;29;20043;-76
2024/01/12 03:43:40;;;;;;;7.90;3.05;;;;;;;2.53;100.00;103280.13;4780100;29;20043;-76
2024/01/12 03:46:05;;;;;;;3.90;2.63;;;;;;;2.51;100.00;103275.94;4777408;29;20494;-76
2024/01/12 03:48:31;;;;;;;10.73;3.58;;;;;;;2.42;100.00;103268.16;4775178;29;20506;-76
2024/01/12 03:50:56;;;;;;;11.48;3.30;;;;;;;2.47;100.00;103267.34;4779297;30;20096;-76
2024/01/12 03:53:21;;;;;;;9.45;4.05;;;;;;;2.52;100.00;103277.63;4777670;29;20118;-76
2024/01/12 03:55:47;;;;;;;6.63;3.50;;;;;;;2.56;100.00;103273.22;4775573;29;20031;-76
2024/01/12 03:58:12;;;;;;;4.65;3.83;;;;;;;2.53;100.00;103263.53;4778912;30;20031;-76
2024/01/12 04:00:38;;;;;;;6.75;2.97;;;;;;;2.49;100.00;103256.88;4780144;29;20506;-76
2024/01/12 04:03:03;;;;;;;10.88;3.42;;;;;;;2.52;100.00;103245.28;4776839;29;20039;-76
2024/01/12 04:05:29;;;;;;;10.50;3.30;;;;;;;2.50;100.00;103235.59;4777798;29;20054;-76
2024/01/12 04:07:54;;;;;;;17.00;3.60;;;;;;;2.50;100.00;103241.09;4780301;29;20039;-75
2024/01/12 04:10:19;;;;;;;9.82;2.95;;;;;;;2.48;100.00;103227.53;4778315;29;20043;-75
2024/01/12 04:12:45;;;;;;;8.85;3.95;;;;;;;2.48;100.00;103230.31;4779750;29;20067;-75
2024/01/12 04:15:10;;;;;;;7.18;3.75;;;;;;;2.49;100.00;103223.69;4776354;29;20034;-75
2024/01/12 04:17:36;;;;;;;9.95;3.33;;;;;;;2.50;100.00;103217.06;4780572;29;20410;-75
2024/01/12 04:20:02;;;;;;;6.00;3.13;;;;;;;2.50;100.00;103214.28;4793729;29;20050;-75
2024/01/12 04:22:27;;;;;;;8.23;2.95;;;;;;;2.48;100.00;103224.78;4781654;29;20039;-75
2024/01/12 04:24:52;;;;;;;11.00;3.30;;;;;;;2.53;100.00;103223.97;4783574;30;20042;-75
2024/01/12 04:27:18;;;;;;;12.90;3.67;;;;;;;2.51;100.00;103227.03;4783060;29;20038;-75
2024/01/12 04:29:43;;;;;;;10.07;3.45;;;;;;;2.53;100.00;103229.50;4782984;29;20548;-75
2024/01/12 04:32:08;;;;;;;9.20;3.78;;;;;;;2.48;100.00;103232.25;4782470;29;20043;-75
2024/01/12 04:34:36;;;;;;;12.48;3.10;;;;;;;2.48;100.00;103237.78;4780004;29;20031;-74
2024/01/12 04:37:01;;;;;;;8.85;3.53;;;;;;;2.46;100.00;103237.22;4782364;29;20043;-75
2024/01/12 04:39:27;;;;;;;4.53;3.35;;;;;;;2.47;100.00;103242.47;4788556;29;20411;-75
2024/01/12 04:41:52;;;;;;;10.18;3.20;;;;;;;2.48;100.00;103232.25;4781182;29;20043;-75
2024/01/12 04:44:17;;;;;;;7.47;3.53;;;;;;;2.50;100.00;103243.88;4779794;29;20043;-75
2024/01/12 04:46:43;;;;;;;8.20;2.92;;;;;;;2.49;100.00;103240.28;4778948;29;20055;-75
2024/01/12 04:49:09;;;;;;;8.60;3.10;;;;;;;2.55;100.00;103249.44;4778259;29;20031;-75
2024/01/12 04:51:34;;;;;;;10.35;3.70;;;;;;;2.57;100.00;103250.00;4778836;29;20058;-77
2024/01/12 04:53:59;;;;;;;7.72;3.10;;;;;;;2.55;100.00;103243.91;4785627;29;20132;-75
2024/01/12 04:56:25;;;;;;;6.50;3.47;;;;;;;2.56;100.00;103251.09;4776123;29;20035;-75
2024/01/12 04:58:50;;;;;;;9.23;3.58;;;;;;;2.56;100.00;103242.81;4778681;29;20043;-75
2024/01/12 05:01:16;;;;;;;5.90;3.53;;;;;;;2.54;100.00;103242.25;4781651;29;20055;-75
2024/01/12 05:03:44;;;;;;;8.68;3.15;;;;;;;2.53;100.00;103235.88;4776678;29;20499;-75
2024/01/12 05:06:10;;;;;;;6.00;3.13;;;;;;;2.56;100.00;103238.13;4773952;30;20403;-75
2024/01/12 05:08:37;;;;;;;6.35;3.08;;;;;;;2.53;100.00;103229.50;4777106;29;20044;-75
2024/01/12 05:11:02;;;;;;;9.88;3.08;;;;;;;2.55;100.00;103227.31;4776567;29;20122;-75
2024/01/12 05:13:28;;;;;;;10.18;4.43;;;;;;;2.56;100.00;103231.75;4775640;29;20577;-75
2024/01/12 05:15:54;;;;;;;8.65;3.47;;;;;;;2.58;100.00;103235.09;4780372;29;20035;-75
2024/01/12 05:18:19;;;;;;;7.70;3.78;;;;;;;2.60;100.00;103235.66;4782633;29;20543;-75
2024/01/12 05:20:45;;;;;;;4.57;3.13;;;;;;;2.37;100.00;103228.56;4775332;29;20044;-75
2024/01/12 05:23:10;;;;;;;5.95;3.50;;;;;;;2.51;100.00;103237.22;4781270;29;20491;-75
2024/01/12 05:25:36;;;;;;;9.80;4.15;;;;;;;2.55;100.00;103233.69;4782728;29;20063;-77
2024/01/12 05:28:01;;;;;;;10.85;4.25;;;;;;;2.59;100.00;103232.06;4784657;29;20038;-75
2024/01/12 05:30:27;;;;;;;10.38;4.93;;;;;;;2.58;100.00;103240.63;4782603;29;20047;-75
2024/01/12 05:32:52;;;;;;;8.40;4.40;;;;;;;2.57;100.00;103233.41;4777842;29;20105;-75
2024/01/12 05:35:17;;;;;;;6.82;3.60;;;;;;;2.56;100.00;103232.59;4778764;29;20046;-75
2024/01/12 05:37:43;;;;;;;7.55;3.28;;;;;;;2.60;100.00;103232.91;4778974;29;20047;-75
2024/01/12 05:40:08;;;;;;;9.88;4.10;;;;;;;2.60;100.00;103230.94;4776740;29;20064;-75
2024/01/12 05:42:34;;;;;;;8.30;4.03;;;;;;;2.60;100.00;103225.41;4781308;29;20121;-75
2024/01/12 05:44:59;;;;;;;11.48;3.50;;;;;;;2.57;100.00;103214.91;4779126;29;20169;-75
2024/01/12 05:47:24;;;;;;;7.95;4.40;;;;;;;2.57;100.00;103212.16;4776126;29;20309;-75
2024/01/12 05:49:50;;;;;;;13.32;4.43;;;;;;;2.55;100.00;103210.72;4783799;29;20084;-75
2024/01/12 05:52:15;;;;;;;12.57;4.45;;;;;;;2.56;100.00;103207.69;4776912;29;20034;-75
2024/01/12 05:54:40;;;;;;;15.13;5.15;;;;;;;2.57;100.00;103203.84;4779624;29;20039;-75
2024/01/12 05:57:06;;;;;;;6.35;4.18;;;;;;;2.57;100.00;103209.38;4781503;29;20458;-75
2024/01/12 05:59:32;;;;;;;8.20;3.65;;;;;;;2.55;100.00;103211.56;4780878;29;20042;-75
2024/01/12 06:01:58;;;;;;;6.55;4.10;;;;;;;2.55;100.00;103208.81;4779289;29;20543;-75
2024/01/12 06:04:24;;;;;;;8.40;4.07;;;;;;;2.52;100.00;103203.78;4778075;29;20046;-75
2024/01/12 06:06:49;;;;;;;8.23;4.43;;;;;;;2.51;100.00;103195.75;4775940;30;20039;-77
2024/01/12 06:09:15;;;;;;;9.10;4.57;;;;;;;2.57;100.00;103208.53;4778693;29;20208;-74
2024/01/12 06:11:44;;;;;;;14.00;4.95;;;;;;;2.57;100.00;103205.75;4780789;29;20090;-75
2024/01/12 06:14:10;;;;;;;4.32;3.78;;;;;;;2.56;100.00;103210.47;4775100;29;20185;-75
2024/01/12 06:16:35;;;;;;;12.98;4.75;;;;;;;2.58;100.00;103208.25;4776000;29;20039;-75
2024/01/12 06:19:01;;;;;;;13.75;6.13;;;;;;;2.61;100.00;103202.22;4783354;29;20039;-75
2024/01/12 06:21:26;;;;;;;8.70;4.65;;;;;;;2.62;100.00;103212.16;4777460;29;20514;-75
2024/01/12 06:23:52;;;;;;;9.40;4.43;;;;;;;2.61;100.00;103202.22;4775845;29;20050;-75
2024/01/12 06:26:17;;;;;;;11.15;4.18;;;;;;;2.59;100.00;103207.19;4774022;29;20096;-75
2024/01/12 06:28:43;;;;;;;7.20;4.63;;;;;;;2.61;100.00;103204.97;4775758;29;20091;-73
2024/01/12 06:31:08;;;;;;;9.80;6.35;;;;;;;2.61;100.00;103191.16;4773792;29;20490;-73
2024/01/12 06:33:34;;;;;;;9.55;5.00;;;;;;;2.62;100.00;103195.56;4771083;29;20122;-75
2024/01/12 06:36:01;;;;;;;15.88;5.68;;;;;;;2.60;100.00;103197.78;4773087;29;20024;-73
2024/01/12 06:38:27;;;;;;;8.20;4.10;;;;;;;2.54;100.00;103187.78;4777139;29;20088;-73
2024/01/12 06:40:53;;;;;;;7.80;3.67;;;;;;;2.56;100.00;103191.09;4777203;29;20416;-74
2024/01/12 06:43:18;;;;;;;10.40;5.65;;;;;;;2.50;100.00;103189.41;4774754;29;20044;-75
2024/01/12 06:45:43;;;;;;;10.00;4.82;;;;;;;2.21;100.00;103178.72;4773756;29;20251;-75
2024/01/12 06:48:10;;;;;;;13.60;4.80;;;;;;;2.21;100.00;103177.88;4777683;29;20074;-73
2024/01/12 06:50:35;;;;;;;12.80;5.70;;;;;;;2.16;100.00;103186.94;4779758;29;20118;-74
2024/01/12 06:53:08;;;;;;;7.70;5.00;;;;;;;2.35;100.00;103179.09;4773335;29;20126;-72
2024/01/12 06:55:36;;;;;;;;;;;;;;;2.49;100.00;103196.06;4776798;29;20048;-73
2024/01/12 06:58:02;;;;;;;7.50;4.28;;;;;;;2.43;100.00;103197.13;4777114;29;20733;-73
2024/01/12 07:00:28;;;;;;;10.77;5.05;;;;;;;2.46;100.00;103209.56;4770620;29;20049;-72
2024/01/12 07:02:53;;;;;;;9.30;4.63;;;;;;;2.47;100.00;103198.25;4772248;29;20483;-74
2024/01/12 07:05:18;;;;;;;8.48;4.60;;;;;;;2.22;100.00;103191.44;4776716;29;20042;-74
2024/01/12 07:07:44;;;;;;;7.10;4.95;;;;;;;2.35;100.00;103205.91;4779462;29;20114;-77
2024/01/12 07:10:11;;;;;;;12.05;5.45;;;;;;;2.38;100.00;103206.22;4779632;29;20031;-75
2024/01/12 07:12:37;;;;;;;8.27;4.30;;;;;;;2.22;100.00;103219.06;4766646;29;20043;-73
2024/01/12 07:15:03;;;;;;;19.40;5.63;;;;;;;4.15;100.00;103216.53;4772743;29;20081;-75
2024/01/12 07:17:28;;;;;;;8.27;5.07;;;;;;;3.25;100.00;103214.97;4775837;29;20031;-74
2024/01/12 07:19:53;;;;;;;16.38;6.25;;;;;;;2.71;100.00;103211.66;4776864;29;20046;-75
2024/01/12 07:22:19;;;;;;;5.40;4.07;;;;;;;2.38;100.00;103210.88;4774796;29;20098;-75
2024/01/12 07:24:44;;;;;;;12.70;3.88;;;;;;;2.29;100.00;103215.25;4772151;29;20035;-74
2024/01/12 07:27:09;;;;;;;7.00;4.07;;;;;;;2.38;100.00;103208.13;4777761;29;20118;-74
2024/01/12 07:29:35;;;;;;;7.50;4.35;;;;;;;2.26;100.00;103224.03;4775020;29;20043;-75
2024/01/12 07:32:00;;;;;;;7.95;4.50;;;;;;;2.82;100.00;103218.91;4776998;29;20395;-75
2024/01/12 07:34:26;;;;;;;8.10;4.82;;;;;;;2.84;100.00;103222.25;4775818;29;20387;-75
2024/01/12 07:36:51;;;;;;;10.05;4.65;;;;;;;2.71;100.00;103225.50;4777127;29;20046;-76
2024/01/12 07:39:16;;;;;;;9.65;4.07;;;;;;;2.59;100.00;103237.59;4781090;29;20035;-75
2024/01/12 07:41:42;;;;;;;14.18;4.25;;;;;;;2.61;100.00;103232.63;4775598;29;20028;-76
2024/01/12 07:44:08;;;;;;;10.50;4.30;;;;;;;2.66;100.00;103226.31;4780768;29;20063;-75
2024/01/12 07:46:34;;;;;;;12.77;4.47;;;;;;;2.53;100.00;103223.97;4771149;29;20514;-76
2024/01/12 07:48:59;;;;;;;11.55;4.70;;;;;;;2.60;100.00;103219.88;4774720;29;20035;-75
2024/01/12 07:51:25;;;;;;;14.40;4.65;;;;;;;2.62;100.00;103222.41;4776579;29;20063;-75
2024/01/12 07:53:51;;;;;;;16.38;4.10;;;;;;;2.37;100.00;103220.28;4775639;29;20110;-75
2024/01/12 07:56:16;;;;;;;13.57;5.50;;;;;;;2.50;100.00;103211.53;4773566;29;20513;-75
2024/01/12 07:58:42;;;;;;;11.10;4.72;;;;;;;2.49;100.00;103220.06;4776065;29;20118;-76
2024/01/12 08:01:17;;;;;;;4.88;3.45;;;;;;;2.50;100.00;103214.28;4777517;29;20079;-74
2024/01/12 08:03:43;;;;;;;11.70;4.70;;;;;;;2.25;100.00;103223.22;4784346;29;20501;-76
2024/01/12 08:06:09;;;;;;;6.05;4.00;;;;;;;2.16;100.00;103203.53;4780016;29;20035;-76
2024/01/12 08:08:34;;;;;;;11.55;4.30;;;;;;;2.28;100.00;103199.75;4779870;29;20035;-75
2024/01/12 08:10:59;;;;;;;10.25;5.10;;;;;;;2.39;100.00;103207.03;4779653;29;20444;-76
2024/01/12 08:13:25;;;;;;;11.85;6.53;;;;;;;2.28;100.00;103221.84;4779644;29;20043;-75
2024/01/12 08:15:50;;;;;;;12.27;4.70;;;;;;;2.40;100.00;103214.22;4778312;30;20035;-75
2024/01/12 08:18:16;;;;;;;11.55;4.32;;;;;;;2.34;100.00;103209.75;4774783;30;20051;-75
2024/01/12 08:20:42;;;;;;;9.68;4.90;;;;;;;2.35;100.00;103208.66;4773410;29;20398;-75
2024/01/12 08:23:07;;;;;;;11.93;4.43;;;;;;;2.34;100.00;103205.06;4777520;29;20139;-75
2024/01/12 08:25:33;;;;;;;11.32;4.75;;;;;;;2.37;100.00;103203.69;4778134;29;20083;-75
2024/01/12 08:27:58;;;;;;;11.07;4.65;;;;;;;2.41;100.00;103207.59;4779769;29;20043;-75
2024/01/12 08:30:23;;;;;;;11.70;5.38;;;;;;;2.44;100.00;103204.28;4772376;30;20134;-75
2024/01/12 08:32:49;;;;;;;7.85;4.28;;;;;;;2.72;100.00;103205.88;4779828;29;20172;-76
2024/01/12 08:35:14;;;;;;;10.70;4.55;;;;;;;2.70;100.00;103215.50;4775321;29;20403;-74
2024/01/12 08:37:39;;;;;;;12.25;5.25;;;;;;;2.77;100.00;103207.84;4794102;29;20114;-75
2024/01/12 08:40:05;;;;;;;10.27;5.22;;;;;;;2.76;100.00;103204.25;4779387;29;20126;-75
2024/01/12 08:42:31;;;;;;;8.15;4.90;;;;;;;2.73;100.00;103202.00;4788272;29;20070;-75
2024/01/12 08:44:56;;;;;;;10.15;4.80;;;;;;;2.35;100.00;103201.19;4774292;29;20736;-75
2024/01/12 08:47:22;;;;;;;21.05;5.10;;;;;;;2.65;100.00;103205.25;4773945;29;20073;-76
2024/01/12 08:49:47;;;;;;;10.80;4.63;;;;;;;2.77;100.00;103199.53;4775595;30;20605;-76
2024/01/12 08:52:13;;;;;;;9.07;5.03;;;;;;;2.85;100.00;103201.78;4782714;29;20100;-75
2024/01/12 08:54:38;;;;;;;12.60;5.70;;;;;;;2.72;100.00;103196.72;4773695;29;20038;-75
2024/01/12 08:57:04;;;;;;;8.20;5.60;;;;;;;2.74;100.00;103202.81;4776968;29;20051;-75
2024/01/12 08:59:29;;;;;;;10.48;5.05;;;;;;;2.67;100.00;103196.72;4779356;29;20126;-76
2024/01/12 09:01:56;;;;;;;17.65;6.22;;;;;;;2.64;100.00;103204.44;4777760;29;21348;-76
2024/01/12 09:04:23;;;;;;;12.00;4.05;;;;;;;2.74;100.00;103202.81;4781380;30;20122;-76
2024/01/12 09:06:48;;;;;;;12.90;5.43;;;;;;;2.70;100.00;103208.06;4775701;29;20414;-76
2024/01/12 09:09:13;;;;;;;12.35;5.60;;;;;;;2.72;100.00;103207.78;4776707;30;20034;-76
2024/01/12 09:11:39;;;;;;;10.23;5.15;;;;;;;2.84;100.00;103212.00;4771023;29;20059;-76
2024/01/12 09:14:04;;;;;;;11.65;5.43;;;;;;;2.97;100.00;103218.16;4775884;29;20027;-75
2024/01/12 09:16:29;;;;;;;10.75;4.50;;;;;;;2.93;100.00;103206.81;4778238;29;20073;-76
2024/01/12 09:18:55;;;;;;;8.13;4.28;;;;;;;2.96;100.00;103199.91;4778345;29;20039;-77
2024/01/12 09:21:20;;;;;;;9.15;4.50;;;;;;;2.97;100.00;103201.56;4776809;29;20038;-77
2024/01/12 09:23:45;;;;;;;9.00;4.30;;;;;;;3.02;100.00;103196.91;4775830;29;20482;-74
2024/01/12 09:26:12;;;;;;;8.50;3.72;;;;;;;3.11;100.00;103201.91;4781332;29;20562;-76
2024/01/12 09:28:37;;;;;;;8.18;4.47;;;;;;;3.02;100.00;103199.66;4785968;29;20122;-76
2024/01/12 09:31:03;;;;;;;11.07;4.70;;;;;;;3.03;100.00;103184.72;4781677;29;20110;-76
2024/01/12 09:33:29;;;;;;;11.32;4.63;;;;;;;3.10;100.00;103200.25;4780159;29;20023;-77
2024/01/12 09:35:54;;;;;;;10.85;5.07;;;;;;;3.01;100.00;103203.50;4774663;29;20139;-77
2024/01/12 09:38:20;;;;;;;19.05;5.05;;;;;;;2.94;100.00;103197.41;4774068;29;20047;-76
2024/01/12 09:40:46;;;;;;;8.65;4.38;;;;;;;3.03;100.00;103190.25;4778244;29;20491;-76
2024/01/12 09:43:13;;;;;;;8.50;4.63;;;;;;;3.07;100.00;103195.25;4775150;29;20096;-77
2024/01/12 09:45:43;;;;;;;9.05;4.72;;;;;;;3.07;100.00;103195.25;4776054;29;20118;-78
2024/01/12 09:48:09;;;;;;;10.43;4.80;;;;;;;3.18;100.00;103196.94;4778546;29;20089;-77
2024/01/12 09:50:34;;;;;;;15.93;5.47;;;;;;;3.22;100.00;103200.84;4772543;29;20178;-77
2024/01/12 09:53:00;;;;;;;11.95;4.47;;;;;;;3.20;100.00;103201.09;4773670;29;20046;-77
2024/01/12 09:55:25;;;;;;;12.45;4.75;;;;;;;3.36;100.00;103198.41;4773522;29;20031;-77
2024/01/12 09:57:51;;;;;;;10.57;5.53;;;;;;;3.35;100.00;103191.19;4773977;29;20043;-75
2024/01/12 10:00:19;;;;;;;8.50;4.43;;;;;;;3.25;100.00;103192.84;4779960;29;20638;-77
2024/01/12 10:02:45;;;;;;;7.93;3.50;;;;;;;3.28;100.00;103191.47;4781856;29;20035;-76
2024/01/12 10:05:10;;;;;;;13.15;5.22;;;;;;;3.34;100.00;103184.84;4778727;29;20039;-76
2024/01/12 10:07:36;;;;;;;10.07;4.32;;;;;;;3.51;100.00;103183.78;4778063;29;20043;-76
2024/01/12 10:10:01;;;;;;;14.40;3.78;;;;;;;3.49;100.00;103188.75;4777231;29;20620;-76
2024/01/12 10:12:27;;;;;;;14.45;4.68;;;;;;;3.55;100.00;103187.66;4789208;29;20043;-76
2024/01/12 10:15:04;;;;;;;10.88;3.22;;;;;;;3.53;100.00;103187.94;4773148;29;20078;-76
2024/01/12 10:17:30;;;;;;;22.27;4.32;;;;;;;3.53;100.00;103187.94;4776860;29;20028;-76
2024/01/12 10:19:56;;;;;;;14.20;3.70;;;;;;;3.50;100.00;103198.72;4783174;29;20035;-76
2024/01/12 10:22:21;;;;;;;23.73;4.20;;;;;;;3.55;100.00;103182.13;4787721;29;20376;-76
2024/01/12 10:24:56;;;;;;;8.07;3.55;;;;;;;3.70;100.00;103181.31;4783045;29;20039;-76
2024/01/12 10:27:22;;;;;;;12.30;2.97;;;;;;;3.62;100.00;103179.91;4780584;29;20450;-76
2024/01/12 10:29:48;;;;;;;11.40;3.03;;;;;;;3.69;100.00;103190.72;4780033;29;20046;-76
2024/01/12 10:32:18;;;;;;;9.57;3.60;;;;;;;3.79;100.00;103188.81;4780473;29;20043;-76
2024/01/12 10:34:43;;;;;;;10.10;2.67;;;;;;;3.82;100.00;103202.13;4781327;29;20653;-76
2024/01/12 10:37:10;;;;;;;13.52;3.75;;;;;;;3.73;100.00;103195.47;4776740;29;20146;-76
2024/01/12 10:39:37;;;;;;;7.45;2.95;;;;;;;3.77;100.00;103195.72;4777189;29;20043;-76
2024/01/12 10:42:07;;;;;;;13.50;3.10;;;;;;;3.83;100.00;103201.00;4779262;29;20521;-76
2024/01/12 10:44:35;;;;;;;9.43;3.15;;;;;;;3.75;100.00;103193.22;4776604;30;20031;-76
2024/01/12 10:47:05;;;;;;;16.13;3.45;;;;;;;3.85;100.00;103200.72;4774946;30;20104;-76
2024/01/12 10:49:47;;;;;;;10.70;2.58;;;;;;;3.98;100.00;103199.34;4787997;29;20035;-76
2024/01/12 10:52:21;;;;;;;17.77;2.97;;;;;;;3.94;100.00;103187.16;4775188;29;20137;-76
2024/01/12 10:54:51;;;;;;;9.55;2.53;;;;;;;3.98;100.00;103196.59;4775755;30;20043;-76
2024/01/12 10:57:17;;;;;;;8.55;2.53;;;;;;;3.93;100.00;103196.59;4778851;29;20562;-76
2024/01/12 10:59:44;;;;;;;9.68;2.95;;;;;;;3.81;100.00;103186.59;4780503;29;20039;-76
2024/01/12 11:02:13;;;;;;;13.65;2.80;;;;;;;3.84;100.00;103188.81;4779937;29;20058;-76
2024/01/12 11:04:45;;;;;;;7.20;2.88;;;;;;;3.83;100.00;103187.16;4779267;29;20516;-76
2024/01/12 11:07:12;;;;;;;7.18;2.20;;;;;;;3.93;100.00;103185.50;4782007;29;20042;-75
2024/01/12 11:09:37;;;;;;;8.15;2.65;;;;;;;3.82;100.00;103173.59;4782913;29;20043;-76
2024/01/12 11:12:10;;;;;;;15.82;3.35;;;;;;;3.96;100.00;103184.94;4778297;29;20042;-76